createdAt,value
2019-01-19T00:00:52.039Z,-0.85
2019-01-19T00:01:52.038Z,-0.75
2019-01-19T00:02:52.065Z,-0.81
2019-01-19T00:03:52.044Z,-0.70
2019-01-19T00:04:52.009Z,-0.73
2019-01-19T00:05:51.966Z,-0.79
2019-01-19T00:06:51.952Z,-0.89
2019-01-19T00:07:51.945Z,-0.92
2019-01-19T00:08:51.941Z,-0.82
2019-01-19T00:09:51.989Z,-0.89
2019-01-19T00:10:51.935Z,-0.85
2019-01-19T00:11:51.915Z,-0.92
2019-01-19T00:12:51.893Z,-0.92
2019-01-19T00:13:51.904Z,-0.90
2019-01-19T00:14:51.871Z,-0.89
2019-01-19T00:15:51.939Z,-0.95
2019-01-19T00:16:51.848Z,-0.92
2019-01-19T00:17:51.845Z,-0.81
2019-01-19T00:18:51.855Z,-0.75
2019-01-19T00:19:51.834Z,-0.81
2019-01-19T00:20:51.806Z,-0.85
2019-01-19T00:21:51.824Z,-0.82
2019-01-19T00:22:51.784Z,-0.82
2019-01-19T00:23:51.775Z,-0.79
2019-01-19T00:24:51.787Z,-0.76
2019-01-19T00:25:51.775Z,-0.79
2019-01-19T00:26:51.740Z,-0.75
2019-01-19T00:27:51.759Z,-0.71
2019-01-19T00:28:51.744Z,-0.78
2019-01-19T00:29:51.711Z,-0.84
2019-01-19T00:30:51.700Z,-0.81
2019-01-19T00:31:51.742Z,-0.79
2019-01-19T00:32:51.675Z,-0.78
2019-01-19T00:33:51.687Z,-0.85
2019-01-19T00:34:51.654Z,-0.78
2019-01-19T00:35:51.675Z,-0.79
2019-01-19T00:36:51.633Z,-0.82
2019-01-19T00:37:51.625Z,-0.82
2019-01-19T00:38:51.626Z,-0.84
2019-01-19T00:39:51.620Z,-0.92
2019-01-19T00:40:51.619Z,-0.71
2019-01-19T00:41:51.587Z,-0.82
2019-01-19T00:42:51.606Z,-0.86
2019-01-19T00:43:51.563Z,-0.84
2019-01-19T00:44:51.547Z,-0.90
2019-01-19T00:45:51.533Z,-0.85
2019-01-19T00:46:51.594Z,-0.82
2019-01-19T00:47:51.513Z,-0.94
2019-01-19T00:48:51.506Z,-0.79
2019-01-19T00:49:51.510Z,-0.86
2019-01-19T00:50:51.481Z,-0.81
2019-01-19T00:51:51.476Z,-0.84
2019-01-19T00:52:51.491Z,-0.85
2019-01-19T00:53:51.479Z,-0.82
2019-01-19T00:54:51.441Z,-0.86
2019-01-19T00:55:51.461Z,-0.89
2019-01-19T00:56:51.423Z,-0.92
2019-01-19T00:57:51.441Z,-0.94
2019-01-19T00:58:51.667Z,-0.90
2019-01-19T00:59:51.444Z,-0.92
2019-01-19T01:00:51.399Z,-0.85
2019-01-19T01:01:51.394Z,-0.98
2019-01-19T01:02:51.358Z,-1.00
2019-01-19T01:03:51.347Z,-0.90
2019-01-19T01:04:51.385Z,-1.03
2019-01-19T01:05:51.355Z,-1.04
2019-01-19T01:06:51.363Z,-0.95
2019-01-19T01:07:51.340Z,-1.03
2019-01-19T01:08:51.311Z,-1.03
2019-01-19T01:09:51.300Z,-1.04
2019-01-19T01:10:51.318Z,-1.03
2019-01-19T01:11:51.302Z,-1.01
2019-01-19T01:12:51.282Z,-1.04
2019-01-19T01:13:51.261Z,-1.04
2019-01-19T01:14:51.231Z,-1.03
2019-01-19T01:15:51.220Z,-0.98
2019-01-19T01:16:51.233Z,-1.04
2019-01-19T01:17:51.198Z,-1.01
2019-01-19T01:18:51.185Z,-1.03
2019-01-19T01:19:51.189Z,-1.03
2019-01-19T01:20:51.163Z,-1.05
2019-01-19T01:21:51.184Z,-1.05
2019-01-19T01:22:51.166Z,-1.03
2019-01-19T01:23:51.129Z,-1.08
2019-01-19T01:24:51.122Z,-1.04
2019-01-19T01:25:51.130Z,-1.04
2019-01-19T01:26:51.123Z,-1.03
2019-01-19T01:27:51.124Z,-1.04
2019-01-19T01:28:51.101Z,-1.00
2019-01-19T01:29:51.067Z,-1.03
2019-01-19T01:30:51.057Z,-1.04
2019-01-19T01:31:51.079Z,-1.08
2019-01-19T01:32:51.036Z,-1.01
2019-01-19T01:33:51.057Z,-1.07
2019-01-19T01:34:51.014Z,-1.13
2019-01-19T01:35:51.058Z,-1.11
2019-01-19T01:36:50.995Z,-1.00
2019-01-19T01:37:51.030Z,-1.08
2019-01-19T01:38:51.000Z,-1.08
2019-01-19T01:39:50.986Z,-1.05
2019-01-19T01:40:50.953Z,-1.04
2019-01-19T01:41:50.961Z,-1.00
2019-01-19T01:42:50.962Z,-1.03
2019-01-19T01:43:50.966Z,-1.04
2019-01-19T01:44:50.941Z,-0.98
2019-01-19T01:45:50.943Z,-1.04
2019-01-19T01:46:50.901Z,-0.86
2019-01-19T01:47:50.870Z,-0.86
2019-01-19T01:48:50.916Z,-1.01
2019-01-19T01:49:50.869Z,-0.98
2019-01-19T01:50:50.844Z,-0.94
2019-01-19T01:51:50.845Z,-0.92
2019-01-19T01:52:50.863Z,-0.95
2019-01-19T01:53:50.830Z,-0.89
2019-01-19T01:54:50.827Z,-0.92
2019-01-19T01:55:50.835Z,-0.89
2019-01-19T01:56:50.779Z,-1.01
2019-01-19T01:57:50.768Z,-0.90
2019-01-19T01:58:50.823Z,-0.89
2019-01-19T01:59:50.823Z,-0.92
2019-01-19T02:00:50.736Z,-0.89
2019-01-19T02:01:50.743Z,-0.85
2019-01-19T02:02:50.714Z,-0.92
2019-01-19T02:03:50.731Z,-0.89
2019-01-19T02:04:50.725Z,-1.03
2019-01-19T02:05:50.687Z,-1.04
2019-01-19T02:06:50.675Z,-0.90
2019-01-19T02:07:50.734Z,-1.05
2019-01-19T02:08:50.672Z,-1.04
2019-01-19T02:09:50.639Z,-0.98
2019-01-19T02:10:50.657Z,-1.01
2019-01-19T02:11:50.631Z,-0.94
2019-01-19T02:12:50.611Z,-1.01
2019-01-19T02:13:50.619Z,-1.00
2019-01-19T02:14:50.687Z,-1.01
2019-01-19T02:15:50.576Z,-0.89
2019-01-19T02:16:50.565Z,-0.97
2019-01-19T02:17:50.559Z,-0.86
2019-01-19T02:18:50.546Z,-0.85
2019-01-19T02:19:50.637Z,-0.89
2019-01-19T02:20:50.540Z,-0.86
2019-01-19T02:21:50.522Z,-0.92
2019-01-19T02:22:50.499Z,-0.95
2019-01-19T02:23:50.526Z,-0.90
2019-01-19T02:24:50.495Z,-0.98
2019-01-19T02:25:50.540Z,-0.98
2019-01-19T02:26:50.474Z,-0.86
2019-01-19T02:27:50.464Z,-0.97
2019-01-19T02:28:50.442Z,-1.03
2019-01-19T02:29:50.435Z,-0.89
2019-01-19T02:30:50.474Z,-0.94
2019-01-19T02:31:50.430Z,-0.92
2019-01-19T02:32:50.415Z,-0.90
2019-01-19T02:33:50.400Z,-0.90
2019-01-19T02:34:50.374Z,-0.89
2019-01-19T02:35:50.482Z,-0.90
2019-01-19T02:36:50.353Z,-0.92
2019-01-19T02:37:50.363Z,-0.94
2019-01-19T02:38:50.381Z,-0.85
2019-01-19T02:39:50.345Z,-0.84
2019-01-19T02:40:50.339Z,-0.86
2019-01-19T02:41:50.324Z,-0.97
2019-01-19T02:42:50.330Z,-0.90
2019-01-19T02:43:50.297Z,-1.00
2019-01-19T02:44:50.351Z,-0.85
2019-01-19T02:45:50.279Z,-1.03
2019-01-19T02:46:50.296Z,-0.92
2019-01-19T02:47:50.238Z,-1.03
2019-01-19T02:48:50.257Z,-0.92
2019-01-19T02:49:50.238Z,-0.95
2019-01-19T02:50:50.283Z,-0.92
2019-01-19T02:51:50.219Z,-1.00
2019-01-19T02:52:50.179Z,-1.07
2019-01-19T02:53:50.189Z,-1.00
2019-01-19T02:54:50.181Z,-1.03
2019-01-19T02:55:50.151Z,-1.05
2019-01-19T02:56:50.172Z,-0.98
2019-01-19T02:57:50.131Z,-1.01
2019-01-19T02:58:50.120Z,-1.05
2019-01-19T02:59:50.134Z,-1.07
2019-01-19T03:00:50.126Z,-1.08
2019-01-19T03:01:50.138Z,-1.11
2019-01-19T03:02:50.097Z,-1.05
2019-01-19T03:03:50.067Z,-1.07
2019-01-19T03:04:50.056Z,-1.03
2019-01-19T03:05:56.102Z,-1.00
2019-01-19T03:06:51.078Z,-1.10
2019-01-19T03:07:50.029Z,-1.05
2019-01-19T03:08:50.014Z,-1.13
2019-01-19T03:09:50.180Z,-1.10
2019-01-19T03:10:49.991Z,-1.11
2019-01-19T03:11:50.000Z,-1.13
2019-01-19T03:12:50.018Z,-1.04
2019-01-19T03:13:49.955Z,-1.11
2019-01-19T03:14:49.969Z,-1.11
2019-01-19T03:15:49.958Z,-1.11
2019-01-19T03:16:49.926Z,-1.11
2019-01-19T03:17:50.003Z,-1.10
2019-01-19T03:18:49.935Z,-1.15
2019-01-19T03:19:49.894Z,-1.18
2019-01-19T03:20:49.903Z,-1.16
2019-01-19T03:21:49.871Z,-1.11
2019-01-19T03:22:49.886Z,-1.21
2019-01-19T03:23:49.870Z,-1.18
2019-01-19T03:24:49.842Z,-1.18
2019-01-19T03:25:49.854Z,-1.16
2019-01-19T03:26:49.849Z,-1.18
2019-01-19T03:27:49.858Z,-1.18
2019-01-19T03:28:49.806Z,-1.18
2019-01-19T03:29:49.809Z,-1.23
2019-01-19T03:30:49.772Z,-1.19
2019-01-19T03:31:49.772Z,-1.25
2019-01-19T03:32:49.818Z,-1.21
2019-01-19T03:33:49.745Z,-1.25
2019-01-19T03:34:49.760Z,-1.22
2019-01-19T03:35:49.738Z,-1.23
2019-01-19T03:36:49.728Z,-1.25
2019-01-19T03:37:49.701Z,-1.26
2019-01-19T03:38:49.719Z,-1.23
2019-01-19T03:39:49.674Z,-1.26
2019-01-19T03:40:49.693Z,-1.21
2019-01-19T03:41:49.725Z,-1.22
2019-01-19T03:42:49.653Z,-1.26
2019-01-19T03:43:49.666Z,-1.26
2019-01-19T03:44:49.626Z,-1.31
2019-01-19T03:45:49.611Z,-1.29
2019-01-19T03:46:49.642Z,-1.29
2019-01-19T03:47:49.597Z,-1.31
2019-01-19T03:48:49.605Z,-1.29
2019-01-19T03:49:49.586Z,-1.29
2019-01-19T03:50:49.559Z,-1.36
2019-01-19T03:51:49.549Z,-1.33
2019-01-19T03:52:49.566Z,-1.34
2019-01-19T03:53:49.563Z,-1.23
2019-01-19T03:54:49.518Z,-1.33
2019-01-19T03:55:49.508Z,-1.28
2019-01-19T03:56:49.537Z,-1.34
2019-01-19T03:57:49.533Z,-1.33
2019-01-19T03:58:49.524Z,-1.19
2019-01-19T03:59:49.546Z,-1.31
2019-01-19T04:00:49.502Z,-1.22
2019-01-19T04:01:49.478Z,-1.25
2019-01-19T04:02:49.441Z,-1.29
2019-01-19T04:03:49.442Z,-1.28
2019-01-19T04:04:49.447Z,-1.25
2019-01-19T04:05:49.404Z,-1.22
2019-01-19T04:06:49.389Z,-1.29
2019-01-19T04:07:49.375Z,-1.25
2019-01-19T04:08:49.399Z,-1.19
2019-01-19T04:09:49.386Z,-1.13
2019-01-19T04:10:49.352Z,-1.16
2019-01-19T04:11:49.391Z,-1.21
2019-01-19T04:12:49.326Z,-1.19
2019-01-19T04:13:49.330Z,-1.21
2019-01-19T04:14:49.350Z,-1.18
2019-01-19T04:15:49.325Z,-1.15
2019-01-19T04:16:49.285Z,-1.19
2019-01-19T04:17:49.293Z,-1.13
2019-01-19T04:18:49.321Z,-1.18
2019-01-19T04:19:49.285Z,-1.19
2019-01-19T04:20:49.242Z,-1.11
2019-01-19T04:21:49.273Z,-1.16
2019-01-19T04:22:49.257Z,-1.07
2019-01-19T04:23:49.262Z,-1.07
2019-01-19T04:24:49.223Z,-1.15
2019-01-19T04:25:49.188Z,-1.15
2019-01-19T04:26:49.200Z,-1.07
2019-01-19T04:27:49.179Z,-1.16
2019-01-19T04:28:49.183Z,-1.10
2019-01-19T04:29:49.176Z,-1.10
2019-01-19T04:30:49.735Z,-1.13
2019-01-19T04:31:49.149Z,-1.07
2019-01-19T04:32:49.186Z,-1.10
2019-01-19T04:33:49.138Z,-1.08
2019-01-19T04:34:49.091Z,-1.05
2019-01-19T04:35:49.108Z,-1.08
2019-01-19T04:36:49.075Z,-1.05
2019-01-19T04:37:49.057Z,-1.05
2019-01-19T04:38:49.052Z,-1.10
2019-01-19T04:39:49.067Z,-1.05
2019-01-19T04:40:49.056Z,-1.04
2019-01-19T04:41:49.023Z,-1.05
2019-01-19T04:42:49.010Z,-1.03
2019-01-19T04:43:48.999Z,-1.05
2019-01-19T04:44:48.989Z,-0.98
2019-01-19T04:45:49.019Z,-1.04
2019-01-19T04:46:48.962Z,-1.01
2019-01-19T04:47:48.956Z,-1.07
2019-01-19T04:48:48.968Z,-1.07
2019-01-19T04:49:48.936Z,-1.04
2019-01-19T04:50:48.921Z,-1.00
2019-01-19T04:51:48.963Z,-1.03
2019-01-19T04:52:48.909Z,-1.01
2019-01-19T04:53:48.946Z,-1.07
2019-01-19T04:54:48.878Z,-1.08
2019-01-19T04:55:48.889Z,-1.03
2019-01-19T04:56:48.933Z,-1.04
2019-01-19T04:57:48.871Z,-1.07
2019-01-19T04:58:48.861Z,-1.01
2019-01-19T04:59:48.827Z,-1.07
2019-01-19T05:00:48.815Z,-1.04
2019-01-19T05:01:48.876Z,-1.03
2019-01-19T05:02:48.819Z,-1.01
2019-01-19T05:03:48.805Z,-1.08
2019-01-19T05:04:48.818Z,-1.11
2019-01-19T05:05:48.763Z,-1.08
2019-01-19T05:06:48.786Z,-1.10
2019-01-19T05:07:48.763Z,-1.10
2019-01-19T05:08:48.751Z,-1.08
2019-01-19T05:09:48.755Z,-1.05
2019-01-19T05:10:48.731Z,-1.15
2019-01-19T05:11:48.732Z,-1.10
2019-01-19T05:12:48.743Z,-1.05
2019-01-19T05:13:48.674Z,-1.11
2019-01-19T05:14:48.669Z,-1.13
2019-01-19T05:15:48.723Z,-1.18
2019-01-19T05:16:48.642Z,-1.05
2019-01-19T05:17:48.659Z,-1.13
2019-01-19T05:18:48.625Z,-1.19
2019-01-19T05:19:48.622Z,-1.10
2019-01-19T05:20:48.600Z,-1.19
2019-01-19T05:21:48.623Z,-1.18
2019-01-19T05:22:48.639Z,-1.07
2019-01-19T05:23:48.593Z,-1.10
2019-01-19T05:24:48.558Z,-1.08
2019-01-19T05:25:48.553Z,-1.11
2019-01-19T05:26:48.557Z,-1.08
2019-01-19T05:27:48.590Z,-1.15
2019-01-19T05:28:48.517Z,-1.05
2019-01-19T05:29:48.502Z,-1.08
2019-01-19T05:30:48.497Z,-1.08
2019-01-19T05:31:48.480Z,-1.13
2019-01-19T05:32:48.533Z,-1.11
2019-01-19T05:33:48.509Z,-1.18
2019-01-19T05:34:48.453Z,-1.18
2019-01-19T05:35:48.453Z,-1.18
2019-01-19T05:36:48.428Z,-1.16
2019-01-19T05:37:48.446Z,-1.16
2019-01-19T05:38:48.443Z,-1.21
2019-01-19T05:39:48.474Z,-1.16
2019-01-19T05:40:48.421Z,-1.15
2019-01-19T05:41:48.382Z,-1.16
2019-01-19T05:42:48.394Z,-1.08
2019-01-19T05:43:48.409Z,-1.15
2019-01-19T05:44:48.365Z,-1.15
2019-01-19T05:45:48.359Z,-1.21
2019-01-19T05:46:48.325Z,-1.19
2019-01-19T05:47:48.314Z,-1.16
2019-01-19T05:48:48.299Z,-1.18
2019-01-19T05:49:48.314Z,-1.18
2019-01-19T05:50:48.307Z,-1.22
2019-01-19T05:51:48.275Z,-1.23
2019-01-19T05:52:48.259Z,-1.22
2019-01-19T05:53:48.302Z,-1.23
2019-01-19T05:54:48.262Z,-1.15
2019-01-19T05:55:48.254Z,-1.18
2019-01-19T05:56:48.244Z,-1.16
2019-01-19T05:57:48.208Z,-1.10
2019-01-19T05:58:48.212Z,-1.25
2019-01-19T05:59:48.269Z,-1.18
2019-01-19T06:00:48.234Z,-1.19
2019-01-19T06:01:48.186Z,-1.21
2019-01-19T06:02:48.196Z,-1.22
2019-01-19T06:03:48.145Z,-1.21
2019-01-19T06:04:48.191Z,-1.18
2019-01-19T06:05:48.172Z,-1.21
2019-01-19T06:06:48.140Z,-1.26
2019-01-19T06:07:48.132Z,-1.21
2019-01-19T06:08:48.164Z,-1.23
2019-01-19T06:09:48.210Z,-1.23
2019-01-19T06:10:48.092Z,-1.28
2019-01-19T06:11:48.064Z,-1.21
2019-01-19T06:12:48.070Z,-1.26
2019-01-19T06:13:48.035Z,-1.25
2019-01-19T06:14:48.118Z,-1.22
2019-01-19T06:15:48.017Z,-1.31
2019-01-19T06:16:48.005Z,-1.33
2019-01-19T06:17:48.000Z,-1.29
2019-01-19T06:18:47.998Z,-1.34
2019-01-19T06:19:48.021Z,-1.34
2019-01-19T06:20:47.987Z,-1.28
2019-01-19T06:21:47.949Z,-1.29
2019-01-19T06:22:47.984Z,-1.26
2019-01-19T06:23:47.931Z,-1.23
2019-01-19T06:24:47.919Z,-1.33
2019-01-19T06:25:47.966Z,-1.33
2019-01-19T06:26:47.952Z,-1.26
2019-01-19T06:27:47.885Z,-1.33
2019-01-19T06:28:47.876Z,-1.21
2019-01-19T06:29:47.862Z,-1.25
2019-01-19T06:30:47.921Z,-1.25
2019-01-19T06:31:47.847Z,-1.33
2019-01-19T06:32:47.871Z,-1.36
2019-01-19T06:33:47.827Z,-1.36
2019-01-19T06:34:47.853Z,-1.19
2019-01-19T06:35:47.809Z,-1.29
2019-01-19T06:36:54.877Z,-1.26
2019-01-19T06:37:48.782Z,-1.29
2019-01-19T06:38:47.791Z,-1.33
2019-01-19T06:39:47.760Z,-1.33
2019-01-19T06:40:47.781Z,-1.31
2019-01-19T06:41:47.745Z,-1.34
2019-01-19T06:42:47.730Z,-1.34
2019-01-19T06:43:47.740Z,-1.29
2019-01-19T06:44:47.709Z,-1.29
2019-01-19T06:45:47.718Z,-1.36
2019-01-19T06:46:47.759Z,-1.37
2019-01-19T06:47:47.674Z,-1.44
2019-01-19T06:48:47.685Z,-1.43
2019-01-19T06:49:47.692Z,-1.40
2019-01-19T06:50:47.688Z,-1.37
2019-01-19T06:51:47.659Z,-1.40
2019-01-19T06:52:47.621Z,-1.44
2019-01-19T06:53:47.612Z,-1.43
2019-01-19T06:54:47.603Z,-1.44
2019-01-19T06:55:47.612Z,-1.49
2019-01-19T06:56:47.643Z,-1.51
2019-01-19T06:57:47.563Z,-1.43
2019-01-19T06:58:47.562Z,-1.47
2019-01-19T06:59:47.584Z,-1.55
2019-01-19T07:00:47.535Z,-1.51
2019-01-19T07:01:47.576Z,-1.54
2019-01-19T07:02:47.538Z,-1.51
2019-01-19T07:03:47.501Z,-1.52
2019-01-19T07:04:47.491Z,-1.51
2019-01-19T07:05:47.484Z,-1.52
2019-01-19T07:06:47.508Z,-1.51
2019-01-19T07:07:47.540Z,-1.54
2019-01-19T07:08:47.448Z,-1.62
2019-01-19T07:09:47.447Z,-1.52
2019-01-19T07:10:47.467Z,-1.55
2019-01-19T07:11:47.448Z,-1.57
2019-01-19T07:12:47.489Z,-1.59
2019-01-19T07:13:47.395Z,-1.62
2019-01-19T07:14:47.421Z,-1.57
2019-01-19T07:15:47.417Z,-1.55
2019-01-19T07:16:47.423Z,-1.58
2019-01-19T07:17:47.379Z,-1.65
2019-01-19T07:18:47.361Z,-1.67
2019-01-19T07:19:47.356Z,-1.65
2019-01-19T07:20:47.355Z,-1.69
2019-01-19T07:21:47.310Z,-1.67
2019-01-19T07:22:47.321Z,-1.61
2019-01-19T07:23:47.304Z,-1.62
2019-01-19T07:24:47.301Z,-1.57
2019-01-19T07:25:47.291Z,-1.62
2019-01-19T07:26:47.303Z,-1.55
2019-01-19T07:27:47.251Z,-1.58
2019-01-19T07:28:47.246Z,-1.54
2019-01-19T07:29:47.234Z,-1.46
2019-01-19T07:30:47.261Z,-1.59
2019-01-19T07:31:47.205Z,-1.55
2019-01-19T07:32:47.223Z,-1.44
2019-01-19T07:33:47.185Z,-1.47
2019-01-19T07:34:47.177Z,-1.46
2019-01-19T07:35:47.212Z,-1.51
2019-01-19T07:36:47.173Z,-1.49
2019-01-19T07:37:47.164Z,-1.43
2019-01-19T07:38:47.377Z,-1.46
2019-01-19T07:39:47.122Z,-1.40
2019-01-19T07:40:47.111Z,-1.43
2019-01-19T07:41:47.099Z,-1.37
2019-01-19T07:42:47.144Z,-1.46
2019-01-19T07:43:47.082Z,-1.40
2019-01-19T07:44:47.151Z,-1.37
2019-01-19T07:45:47.082Z,-1.43
2019-01-19T07:46:47.092Z,-1.39
2019-01-19T07:47:47.160Z,-1.41
2019-01-19T07:48:47.108Z,-1.37
2019-01-19T07:49:47.036Z,-1.43
2019-01-19T07:50:47.004Z,-1.34
2019-01-19T07:51:47.043Z,-1.39
2019-01-19T07:52:47.004Z,-1.33
2019-01-19T07:53:47.034Z,-1.39
2019-01-19T07:54:47.087Z,-1.34
2019-01-19T07:55:46.996Z,-1.41
2019-01-19T07:56:46.983Z,-1.26
2019-01-19T07:57:46.936Z,-1.33
2019-01-19T07:58:46.941Z,-1.41
2019-01-19T07:59:46.964Z,-1.31
2019-01-19T08:00:46.953Z,-1.34
2019-01-19T08:01:46.914Z,-1.34
2019-01-19T08:02:46.918Z,-1.23
2019-01-19T08:03:46.942Z,-1.29
2019-01-19T08:04:46.936Z,-1.29
2019-01-19T08:05:46.877Z,-1.34
2019-01-19T08:06:46.864Z,-1.37
2019-01-19T08:07:46.846Z,-1.34
2019-01-19T08:08:46.886Z,-1.36
2019-01-19T08:09:46.850Z,-1.29
2019-01-19T08:10:46.834Z,-1.31
2019-01-19T08:11:46.828Z,-1.25
2019-01-19T08:12:46.801Z,-1.29
2019-01-19T08:13:46.762Z,-1.33
2019-01-19T08:14:46.771Z,-1.28
2019-01-19T08:15:46.739Z,-1.22
2019-01-19T08:16:46.770Z,-1.21
2019-01-19T08:17:46.728Z,-1.21
2019-01-19T08:18:46.723Z,-1.21
2019-01-19T08:19:46.727Z,-1.21
2019-01-19T08:20:46.685Z,-1.21
2019-01-19T08:21:46.682Z,-1.10
2019-01-19T08:22:46.689Z,-1.18
2019-01-19T08:23:46.673Z,-1.19
2019-01-19T08:24:46.718Z,-1.22
2019-01-19T08:25:46.642Z,-1.21
2019-01-19T08:26:46.649Z,-1.15
2019-01-19T08:27:46.632Z,-1.13
2019-01-19T08:28:46.602Z,-1.07
2019-01-19T08:29:46.617Z,-1.07
2019-01-19T08:30:46.672Z,-1.05
2019-01-19T08:31:46.585Z,-1.07
2019-01-19T08:32:46.612Z,-1.04
2019-01-19T08:33:46.578Z,-1.05
2019-01-19T08:34:46.708Z,-1.04
2019-01-19T08:35:46.576Z,-1.01
2019-01-19T08:36:46.566Z,-1.00
2019-01-19T08:37:46.499Z,-0.95
2019-01-19T08:38:46.523Z,-0.94
2019-01-19T08:39:46.505Z,-0.89
2019-01-19T08:40:46.522Z,-0.85
2019-01-19T08:41:46.482Z,-0.92
2019-01-19T08:42:46.475Z,-0.81
2019-01-19T08:43:46.486Z,-0.81
2019-01-19T08:44:46.457Z,-0.84
2019-01-19T08:45:46.444Z,-0.78
2019-01-19T08:46:46.413Z,-0.76
2019-01-19T08:47:46.407Z,-0.82
2019-01-19T08:48:46.421Z,-0.86
2019-01-19T08:49:46.401Z,-0.82
2019-01-19T08:50:46.406Z,-0.84
2019-01-19T08:51:46.353Z,-0.76
2019-01-19T08:52:46.340Z,-0.76
2019-01-19T08:53:46.328Z,-0.71
2019-01-19T08:54:46.343Z,-0.75
2019-01-19T08:55:46.350Z,-0.68
2019-01-19T08:56:46.337Z,-0.71
2019-01-19T08:57:46.292Z,-0.67
2019-01-19T08:58:46.277Z,-0.71
2019-01-19T08:59:46.267Z,-0.68
2019-01-19T09:00:46.280Z,-0.71
2019-01-19T09:01:46.246Z,-0.68
2019-01-19T09:02:46.265Z,-0.70
2019-01-19T09:03:46.225Z,-0.71
2019-01-19T09:04:46.216Z,-0.67
2019-01-19T09:05:46.212Z,-0.60
2019-01-19T09:06:46.252Z,-0.61
2019-01-19T09:07:46.183Z,-0.60
2019-01-19T09:08:46.176Z,-0.57
2019-01-19T09:09:46.162Z,-0.55
2019-01-19T09:10:46.180Z,-0.60
2019-01-19T09:11:46.203Z,-0.58
2019-01-19T09:12:46.131Z,-0.55
2019-01-19T09:13:46.118Z,-0.58
2019-01-19T09:14:46.110Z,-0.53
2019-01-19T09:15:46.118Z,-0.63
2019-01-19T09:16:46.129Z,-0.61
2019-01-19T09:17:46.085Z,-0.52
2019-01-19T09:18:46.067Z,-0.49
2019-01-19T09:19:46.057Z,-0.45
2019-01-19T09:20:46.045Z,-0.46
2019-01-19T09:21:46.036Z,-0.38
2019-01-19T09:22:46.107Z,-0.39
2019-01-19T09:23:46.011Z,-0.40
2019-01-19T09:24:46.015Z,-0.42
2019-01-19T09:25:46.013Z,-0.35
2019-01-19T09:26:45.982Z,-0.43
2019-01-19T09:27:45.994Z,-0.40
2019-01-19T09:28:45.991Z,-0.32
2019-01-19T09:29:45.946Z,-0.40
2019-01-19T09:30:45.977Z,-0.43
2019-01-19T09:31:45.957Z,-0.35
2019-01-19T09:32:45.947Z,-0.29
2019-01-19T09:33:45.904Z,-0.29
2019-01-19T09:34:45.922Z,-0.28
2019-01-19T09:35:45.918Z,-0.35
2019-01-19T09:36:45.906Z,-0.32
2019-01-19T09:37:46.935Z,-0.21
2019-01-19T09:38:45.852Z,-0.25
2019-01-19T09:39:45.842Z,-0.27
2019-01-19T09:40:45.848Z,-0.16
2019-01-19T09:41:45.818Z,-0.11
2019-01-19T09:42:45.838Z,-0.14
2019-01-19T09:43:45.846Z,-0.17
2019-01-19T09:44:45.813Z,-0.20
2019-01-19T09:45:45.844Z,-0.16
2019-01-19T09:46:45.763Z,-0.07
2019-01-19T09:47:45.792Z,-0.01
2019-01-19T09:48:46.911Z,-0.06
2019-01-19T09:49:45.755Z,-0.03
2019-01-19T09:50:45.732Z,0.02
2019-01-19T09:51:45.743Z,-0.04
2019-01-19T09:52:45.763Z,0.08
2019-01-19T09:53:45.694Z,0.04
2019-01-19T09:54:45.714Z,0.07
2019-01-19T09:55:45.721Z,0.07
2019-01-19T09:56:45.707Z,0.18
2019-01-19T09:57:45.698Z,0.11
2019-01-19T09:58:45.717Z,0.17
2019-01-19T09:59:45.628Z,0.08
2019-01-19T10:00:45.930Z,0.04
2019-01-19T10:01:46.601Z,0.23
2019-01-19T10:02:45.607Z,0.11
2019-01-19T10:03:45.619Z,0.18
2019-01-19T10:04:45.584Z,0.20
2019-01-19T10:05:45.563Z,0.23
2019-01-19T10:06:45.575Z,0.23
2019-01-19T10:07:48.685Z,0.25
2019-01-19T10:08:45.604Z,0.33
2019-01-19T10:09:45.536Z,0.33
2019-01-19T10:10:45.518Z,0.33
2019-01-19T10:11:45.537Z,0.32
2019-01-19T10:12:45.519Z,0.33
2019-01-19T10:13:45.499Z,0.35
2019-01-19T10:14:45.476Z,0.40
2019-01-19T10:15:45.532Z,0.44
2019-01-19T10:16:45.505Z,0.37
2019-01-19T10:17:45.462Z,0.44
2019-01-19T10:18:45.455Z,0.53
2019-01-19T10:19:45.447Z,0.47
2019-01-19T10:20:45.451Z,0.51
2019-01-19T10:21:45.406Z,0.62
2019-01-19T10:22:45.392Z,0.55
2019-01-19T10:23:45.453Z,0.48
2019-01-19T10:24:45.425Z,0.56
2019-01-19T10:25:45.360Z,0.64
2019-01-19T10:26:45.350Z,0.69
2019-01-19T10:27:45.340Z,0.70
2019-01-19T10:28:45.324Z,0.73
2019-01-19T10:29:45.385Z,0.69
2019-01-19T10:30:45.330Z,0.73
2019-01-19T10:31:45.332Z,0.76
2019-01-19T10:32:45.284Z,0.85
2019-01-19T10:33:45.270Z,0.85
2019-01-19T10:34:45.291Z,0.90
2019-01-19T10:35:45.336Z,0.91
2019-01-19T10:36:45.239Z,0.90
2019-01-19T10:37:45.237Z,0.94
2019-01-19T10:38:45.218Z,0.88
2019-01-19T10:39:45.215Z,0.92
2019-01-19T10:40:45.198Z,0.94
2019-01-19T10:41:45.240Z,0.96
2019-01-19T10:42:45.177Z,1.09
2019-01-19T10:43:45.208Z,1.06
2019-01-19T10:44:45.153Z,1.08
2019-01-19T10:45:45.176Z,0.99
2019-01-19T10:46:45.139Z,0.99
2019-01-19T10:47:45.185Z,1.13
2019-01-19T10:48:45.119Z,1.09
2019-01-19T10:49:45.107Z,1.10
2019-01-19T10:50:45.154Z,1.09
2019-01-19T10:51:45.082Z,1.13
2019-01-19T10:52:45.073Z,1.09
2019-01-19T10:53:45.074Z,1.12
2019-01-19T10:54:45.057Z,1.08
2019-01-19T10:55:45.053Z,1.20
2019-01-19T10:56:45.056Z,1.20
2019-01-19T10:57:45.017Z,1.18
2019-01-19T10:58:45.006Z,1.18
2019-01-19T10:59:45.006Z,1.26
2019-01-19T11:00:45.034Z,1.27
2019-01-19T11:01:44.972Z,1.30
2019-01-19T11:02:44.967Z,1.27
2019-01-19T11:03:44.954Z,1.26
2019-01-19T11:04:44.935Z,1.27
2019-01-19T11:05:45.041Z,1.41
2019-01-19T11:06:44.926Z,1.39
2019-01-19T11:07:44.925Z,1.39
2019-01-19T11:08:44.914Z,1.41
2019-01-19T11:09:44.892Z,1.45
2019-01-19T11:10:44.885Z,1.52
2019-01-19T11:11:44.886Z,1.44
2019-01-19T11:12:44.848Z,1.44
2019-01-19T11:13:44.840Z,1.46
2019-01-19T11:14:44.860Z,1.57
2019-01-19T11:15:44.870Z,1.53
2019-01-19T11:16:44.858Z,1.49
2019-01-19T11:17:44.799Z,1.52
2019-01-19T11:18:44.813Z,1.52
2019-01-19T11:19:44.808Z,1.60
2019-01-19T11:20:44.792Z,1.63
2019-01-19T11:21:44.832Z,1.57
2019-01-19T11:22:44.747Z,1.64
2019-01-19T11:23:44.761Z,1.67
2019-01-19T11:24:44.765Z,1.64
2019-01-19T11:25:44.711Z,1.69
2019-01-19T11:26:44.721Z,1.60
2019-01-19T11:27:44.686Z,1.66
2019-01-19T11:28:45.051Z,1.67
2019-01-19T11:29:44.681Z,1.63
2019-01-19T11:30:44.651Z,1.71
2019-01-19T11:31:44.782Z,1.73
2019-01-19T11:32:44.671Z,1.78
2019-01-19T11:33:44.641Z,1.73
2019-01-19T11:34:44.638Z,1.71
2019-01-19T11:35:44.628Z,1.77
2019-01-19T11:36:44.588Z,1.80
2019-01-19T11:37:44.579Z,1.82
2019-01-19T11:38:44.648Z,1.77
2019-01-19T11:39:44.572Z,1.89
2019-01-19T11:40:44.557Z,1.92
2019-01-19T11:41:44.540Z,1.91
2019-01-19T11:42:44.551Z,1.89
2019-01-19T11:43:44.534Z,1.87
2019-01-19T11:44:44.500Z,1.93
2019-01-19T11:45:44.512Z,1.85
2019-01-19T11:46:44.511Z,1.89
2019-01-19T11:47:44.497Z,1.92
2019-01-19T11:48:44.457Z,1.91
2019-01-19T11:49:44.446Z,1.95
2019-01-19T11:50:44.452Z,1.84
2019-01-19T11:51:44.431Z,1.91
2019-01-19T11:52:44.434Z,1.95
2019-01-19T11:53:44.428Z,2.01
2019-01-19T11:54:44.390Z,1.97
2019-01-19T11:55:45.998Z,2.04
2019-01-19T11:56:44.377Z,2.06
2019-01-19T11:57:44.362Z,2.10
2019-01-19T11:58:44.430Z,1.95
2019-01-19T11:59:44.338Z,1.99
2019-01-19T12:00:44.330Z,2.04
2019-01-19T12:01:44.320Z,2.01
2019-01-19T12:02:44.309Z,2.12
2019-01-19T12:03:44.336Z,2.06
2019-01-19T12:04:44.306Z,2.18
2019-01-19T12:05:44.277Z,2.12
2019-01-19T12:06:44.295Z,2.14
2019-01-19T12:07:44.258Z,2.19
2019-01-19T12:08:44.267Z,2.14
2019-01-19T12:09:44.231Z,2.18
2019-01-19T12:10:44.244Z,2.22
2019-01-19T12:11:44.210Z,2.15
2019-01-19T12:12:44.204Z,2.19
2019-01-19T12:13:44.218Z,2.15
2019-01-19T12:14:44.178Z,2.21
2019-01-19T12:15:44.170Z,2.24
2019-01-19T12:16:44.199Z,2.15
2019-01-19T12:17:44.147Z,2.22
2019-01-19T12:18:44.165Z,2.28
2019-01-19T12:19:44.120Z,2.29
2019-01-19T12:20:44.129Z,2.28
2019-01-19T12:21:44.166Z,2.30
2019-01-19T12:22:44.103Z,2.33
2019-01-19T12:23:44.085Z,2.30
2019-01-19T12:24:44.094Z,2.29
2019-01-19T12:25:44.062Z,2.33
2019-01-19T12:26:44.047Z,2.29
2019-01-19T12:27:44.038Z,2.25
2019-01-19T12:28:44.052Z,2.28
2019-01-19T12:29:44.055Z,2.29
2019-01-19T12:30:44.025Z,2.37
2019-01-19T12:31:44.056Z,2.29
2019-01-19T12:32:43.989Z,2.30
2019-01-19T12:33:43.977Z,2.36
2019-01-19T12:34:44.015Z,2.33
2019-01-19T12:35:43.954Z,2.37
2019-01-19T12:36:43.943Z,2.36
2019-01-19T12:37:43.937Z,2.32
2019-01-19T12:38:43.928Z,2.33
2019-01-19T12:39:43.911Z,2.36
2019-01-19T12:40:43.951Z,2.37
2019-01-19T12:41:43.891Z,2.37
2019-01-19T12:42:43.928Z,2.35
2019-01-19T12:43:43.865Z,2.37
2019-01-19T12:44:43.858Z,2.35
2019-01-19T12:45:43.870Z,2.42
2019-01-19T12:46:43.885Z,2.40
2019-01-19T12:47:44.042Z,2.47
2019-01-19T12:48:43.810Z,2.42
2019-01-19T12:49:43.823Z,2.37
2019-01-19T12:50:43.856Z,2.50
2019-01-19T12:51:43.781Z,2.48
2019-01-19T12:52:43.785Z,2.40
2019-01-19T12:53:43.782Z,2.36
2019-01-19T12:54:43.755Z,2.47
2019-01-19T12:55:43.740Z,2.40
2019-01-19T12:56:43.730Z,2.37
2019-01-19T12:57:43.747Z,2.40
2019-01-19T12:58:43.764Z,2.47